createdAt,value
2022-10-24T00:00:02.760Z,79
2022-10-24T00:20:02.427Z,80
2022-10-24T00:40:02.861Z,80
2022-10-24T01:00:03.220Z,80
2022-10-24T01:20:02.851Z,81
2022-10-24T01:40:03.245Z,82
2022-10-24T02:00:02.629Z,82
2022-10-24T02:20:02.506Z,82
2022-10-24T02:40:02.912Z,81
2022-10-24T03:00:02.186Z,81
2022-10-24T03:20:02.885Z,81
2022-10-24T03:40:02.447Z,81
2022-10-24T04:00:02.934Z,81
2022-10-24T04:20:02.273Z,81
2022-10-24T04:40:02.662Z,81
2022-10-24T05:00:04.023Z,81
2022-10-24T05:20:03.016Z,81
2022-10-24T05:40:02.623Z,82
2022-10-24T06:00:02.874Z,83
2022-10-24T06:20:03.158Z,83
2022-10-24T06:40:02.506Z,83
2022-10-24T07:00:02.808Z,83
2022-10-24T07:20:02.351Z,84
2022-10-24T07:40:02.703Z,84
2022-10-24T08:00:02.939Z,83
2022-10-24T08:20:02.469Z,83
2022-10-24T08:40:02.817Z,83
2022-10-24T09:00:03.156Z,82
2022-10-24T09:20:02.633Z,81
2022-10-24T09:40:02.941Z,80
2022-10-24T10:00:02.204Z,78
2022-10-24T10:20:02.654Z,77
2022-10-24T10:40:03.127Z,75
2022-10-24T11:00:02.371Z,74
2022-10-24T11:20:02.744Z,73
2022-10-24T11:40:03.329Z,73
2022-10-24T12:00:02.823Z,73
2022-10-24T12:20:02.410Z,72
2022-10-24T12:40:02.905Z,71
2022-10-24T13:00:02.213Z,71
2022-10-24T13:20:02.923Z,70
2022-10-24T13:40:03.892Z,70
2022-10-24T14:00:03.714Z,70
2022-10-24T14:20:04.554Z,70
2022-10-24T14:40:04.556Z,70
2022-10-24T15:00:04.590Z,70
2022-10-24T15:20:04.027Z,71
2022-10-24T15:40:03.346Z,72
2022-10-24T16:00:03.794Z,72
2022-10-24T16:20:02.226Z,73
2022-10-24T16:40:02.632Z,73
2022-10-24T17:00:03.301Z,73
2022-10-24T17:20:02.731Z,72
2022-10-24T17:40:03.029Z,72
2022-10-24T18:00:02.320Z,72
2022-10-24T18:20:03.074Z,72
2022-10-24T18:40:02.330Z,72
2022-10-24T19:00:02.762Z,73
2022-10-24T19:20:02.508Z,73
2022-10-24T19:40:03.036Z,73
2022-10-24T20:00:02.416Z,74
2022-10-24T20:20:02.912Z,74
2022-10-24T20:40:02.166Z,74
2022-10-24T21:00:02.700Z,74
2022-10-24T21:20:02.715Z,75
2022-10-24T21:40:03.152Z,75
2022-10-24T22:00:02.556Z,75
2022-10-24T22:20:03.099Z,76
2022-10-24T22:40:02.620Z,76
2022-10-24T23:00:03.039Z,77
2022-10-24T23:20:02.590Z,77
2022-10-24T23:40:02.735Z,77
